sensor_id;sensor_type;location;lat;lon;timestamp;P1;durP1;ratioP1;P2;durP2;ratioP2
46334;SDS011;32051;48.882;9.210;2024-03-08T00:01:30;25.70;;;16.15;;
46334;SDS011;32051;48.882;9.210;2024-03-08T00:03:56;23.95;;;14.75;;
46334;SDS011;32051;48.882;9.210;2024-03-08T00:06:22;19.55;;;14.52;;
46334;SDS011;32051;48.882;9.210;2024-03-08T00:08:48;23.73;;;14.18;;
46334;SDS011;32051;48.882;9.210;2024-03-08T00:11:14;22.95;;;14.50;;
46334;SDS011;32051;48.882;9.210;2024-03-08T00:13:40;23.52;;;16.27;;
46334;SDS011;32051;48.882;9.210;2024-03-08T00:16:06;23.90;;;15.05;;
46334;SDS011;32051;48.882;9.210;2024-03-08T00:18:34;21.95;;;14.35;;
46334;SDS011;32051;48.882;9.210;2024-03-08T00:21:00;28.13;;;16.15;;
46334;SDS011;32051;48.882;9.210;2024-03-08T00:23:26;21.73;;;14.85;;
46334;SDS011;32051;48.882;9.210;2024-03-08T00:25:53;24.63;;;14.60;;
46334;SDS011;32051;48.882;9.210;2024-03-08T00:28:20;25.73;;;15.48;;
46334;SDS011;32051;48.882;9.210;2024-03-08T00:30:47;24.65;;;14.77;;
46334;SDS011;32051;48.882;9.210;2024-03-08T00:33:13;26.58;;;15.13;;
46334;SDS011;32051;48.882;9.210;2024-03-08T00:35:39;22.35;;;15.35;;
46334;SDS011;32051;48.882;9.210;2024-03-08T00:38:05;23.85;;;14.38;;
46334;SDS011;32051;48.882;9.210;2024-03-08T00:40:31;22.13;;;14.45;;
46334;SDS011;32051;48.882;9.210;2024-03-08T00:42:57;19.35;;;13.85;;
46334;SDS011;32051;48.882;9.210;2024-03-08T00:45:23;21.50;;;15.20;;
46334;SDS011;32051;48.882;9.210;2024-03-08T00:47:49;20.65;;;13.65;;
46334;SDS011;32051;48.882;9.210;2024-03-08T00:50:15;23.02;;;14.43;;
46334;SDS011;32051;48.882;9.210;2024-03-08T00:52:41;23.75;;;14.40;;
46334;SDS011;32051;48.882;9.210;2024-03-08T00:55:07;27.35;;;16.35;;
46334;SDS011;32051;48.882;9.210;2024-03-08T00:57:35;18.90;;;14.23;;
46334;SDS011;32051;48.882;9.210;2024-03-08T01:00:03;28.17;;;16.05;;
46334;SDS011;32051;48.882;9.210;2024-03-08T01:02:30;24.42;;;15.50;;
46334;SDS011;32051;48.882;9.210;2024-03-08T01:04:58;28.23;;;14.63;;
46334;SDS011;32051;48.882;9.210;2024-03-08T01:07:24;24.38;;;15.43;;
46334;SDS011;32051;48.882;9.210;2024-03-08T01:09:50;22.92;;;15.80;;
46334;SDS011;32051;48.882;9.210;2024-03-08T01:12:16;26.20;;;16.60;;
46334;SDS011;32051;48.882;9.210;2024-03-08T01:14:42;22.33;;;14.40;;
46334;SDS011;32051;48.882;9.210;2024-03-08T01:17:08;25.02;;;16.00;;
46334;SDS011;32051;48.882;9.210;2024-03-08T01:19:34;23.08;;;15.57;;
46334;SDS011;32051;48.882;9.210;2024-03-08T01:22:01;26.02;;;14.98;;
46334;SDS011;32051;48.882;9.210;2024-03-08T01:24:28;21.40;;;14.05;;
46334;SDS011;32051;48.882;9.210;2024-03-08T01:26:54;30.10;;;14.98;;
46334;SDS011;32051;48.882;9.210;2024-03-08T01:29:20;26.05;;;15.07;;
46334;SDS011;32051;48.882;9.210;2024-03-08T01:31:46;27.52;;;15.45;;
46334;SDS011;32051;48.882;9.210;2024-03-08T01:34:12;21.83;;;15.18;;
46334;SDS011;32051;48.882;9.210;2024-03-08T01:36:38;24.98;;;14.82;;
46334;SDS011;32051;48.882;9.210;2024-03-08T01:39:04;27.95;;;15.13;;
46334;SDS011;32051;48.882;9.210;2024-03-08T01:41:33;24.58;;;15.23;;
46334;SDS011;32051;48.882;9.210;2024-03-08T01:44:00;23.75;;;15.65;;
46334;SDS011;32051;48.882;9.210;2024-03-08T01:46:26;18.63;;;14.23;;
46334;SDS011;32051;48.882;9.210;2024-03-08T01:48:54;23.20;;;16.25;;
46334;SDS011;32051;48.882;9.210;2024-03-08T01:51:21;24.13;;;15.55;;
46334;SDS011;32051;48.882;9.210;2024-03-08T01:53:47;23.45;;;15.70;;
46334;SDS011;32051;48.882;9.210;2024-03-08T01:56:14;29.17;;;16.00;;
46334;SDS011;32051;48.882;9.210;2024-03-08T01:58:43;30.25;;;16.35;;
46334;SDS011;32051;48.882;9.210;2024-03-08T02:01:10;21.95;;;15.25;;
46334;SDS011;32051;48.882;9.210;2024-03-08T02:03:36;27.50;;;15.77;;
46334;SDS011;32051;48.882;9.210;2024-03-08T02:06:03;30.40;;;16.33;;
46334;SDS011;32051;48.882;9.210;2024-03-08T02:08:30;19.88;;;14.27;;
46334;SDS011;32051;48.882;9.210;2024-03-08T02:10:56;22.85;;;14.70;;
46334;SDS011;32051;48.882;9.210;2024-03-08T02:13:22;25.30;;;15.65;;
46334;SDS011;32051;48.882;9.210;2024-03-08T02:18:18;23.95;;;15.45;;
46334;SDS011;32051;48.882;9.210;2024-03-08T02:20:45;25.90;;;15.57;;
46334;SDS011;32051;48.882;9.210;2024-03-08T02:23:12;19.35;;;13.75;;
46334;SDS011;32051;48.882;9.210;2024-03-08T02:25:39;25.75;;;15.85;;
46334;SDS011;32051;48.882;9.210;2024-03-08T02:28:05;24.45;;;16.70;;
46334;SDS011;32051;48.882;9.210;2024-03-08T02:30:33;29.10;;;16.90;;
46334;SDS011;32051;48.882;9.210;2024-03-08T02:32:59;21.08;;;15.45;;
46334;SDS011;32051;48.882;9.210;2024-03-08T02:35:25;25.35;;;16.90;;
46334;SDS011;32051;48.882;9.210;2024-03-08T02:37:51;24.95;;;14.57;;
46334;SDS011;32051;48.882;9.210;2024-03-08T02:40:17;18.67;;;13.63;;
46334;SDS011;32051;48.882;9.210;2024-03-08T02:42:43;19.48;;;13.35;;
46334;SDS011;32051;48.882;9.210;2024-03-08T02:45:09;27.38;;;15.25;;
46334;SDS011;32051;48.882;9.210;2024-03-08T02:47:35;24.83;;;14.73;;
46334;SDS011;32051;48.882;9.210;2024-03-08T02:50:01;22.20;;;14.00;;
46334;SDS011;32051;48.882;9.210;2024-03-08T02:52:28;23.92;;;14.95;;
46334;SDS011;32051;48.882;9.210;2024-03-08T02:54:55;20.52;;;13.95;;
46334;SDS011;32051;48.882;9.210;2024-03-08T02:57:22;21.88;;;14.95;;
46334;SDS011;32051;48.882;9.210;2024-03-08T02:59:48;24.13;;;16.00;;
46334;SDS011;32051;48.882;9.210;2024-03-08T03:02:14;19.33;;;13.18;;
46334;SDS011;32051;48.882;9.210;2024-03-08T03:04:40;22.08;;;14.35;;
46334;SDS011;32051;48.882;9.210;2024-03-08T03:07:06;18.60;;;13.15;;
46334;SDS011;32051;48.882;9.210;2024-03-08T03:09:32;26.23;;;14.13;;
46334;SDS011;32051;48.882;9.210;2024-03-08T03:11:58;24.25;;;13.77;;
46334;SDS011;32051;48.882;9.210;2024-03-08T03:14:24;22.60;;;14.18;;
46334;SDS011;32051;48.882;9.210;2024-03-08T03:16:53;19.80;;;13.88;;
46334;SDS011;32051;48.882;9.210;2024-03-08T03:19:20;25.40;;;15.30;;
46334;SDS011;32051;48.882;9.210;2024-03-08T03:21:46;25.30;;;14.02;;
46334;SDS011;32051;48.882;9.210;2024-03-08T03:24:12;25.63;;;13.88;;
46334;SDS011;32051;48.882;9.210;2024-03-08T03:26:41;23.17;;;14.73;;
46334;SDS011;32051;48.882;9.210;2024-03-08T03:29:09;20.48;;;13.80;;
46334;SDS011;32051;48.882;9.210;2024-03-08T03:31:36;20.35;;;13.82;;
46334;SDS011;32051;48.882;9.210;2024-03-08T03:34:02;23.98;;;14.20;;
46334;SDS011;32051;48.882;9.210;2024-03-08T03:36:32;21.45;;;13.38;;
46334;SDS011;32051;48.882;9.210;2024-03-08T03:38:59;20.85;;;14.00;;
46334;SDS011;32051;48.882;9.210;2024-03-08T03:41:41;26.85;;;14.10;;
46334;SDS011;32051;48.882;9.210;2024-03-08T03:44:09;23.00;;;14.00;;
46334;SDS011;32051;48.882;9.210;2024-03-08T03:46:35;17.35;;;13.68;;
46334;SDS011;32051;48.882;9.210;2024-03-08T03:49:01;19.35;;;14.10;;
46334;SDS011;32051;48.882;9.210;2024-03-08T03:51:28;21.27;;;13.80;;
46334;SDS011;32051;48.882;9.210;2024-03-08T03:53:55;25.25;;;13.73;;
46334;SDS011;32051;48.882;9.210;2024-03-08T03:56:25;20.58;;;13.52;;
46334;SDS011;32051;48.882;9.210;2024-03-08T03:58:52;19.17;;;13.38;;
46334;SDS011;32051;48.882;9.210;2024-03-08T04:01:18;24.13;;;12.93;;
46334;SDS011;32051;48.882;9.210;2024-03-08T04:03:44;23.17;;;15.73;;
46334;SDS011;32051;48.882;9.210;2024-03-08T04:06:10;18.20;;;13.73;;
46334;SDS011;32051;48.882;9.210;2024-03-08T04:08:36;19.08;;;12.93;;
46334;SDS011;32051;48.882;9.210;2024-03-08T04:11:02;21.42;;;14.52;;
46334;SDS011;32051;48.882;9.210;2024-03-08T04:13:28;26.05;;;13.45;;
46334;SDS011;32051;48.882;9.210;2024-03-08T04:15:54;23.83;;;14.82;;
46334;SDS011;32051;48.882;9.210;2024-03-08T04:18:20;18.67;;;13.00;;
46334;SDS011;32051;48.882;9.210;2024-03-08T04:20:47;25.92;;;14.50;;
46334;SDS011;32051;48.882;9.210;2024-03-08T04:23:13;17.90;;;12.40;;
46334;SDS011;32051;48.882;9.210;2024-03-08T04:25:39;22.73;;;12.82;;
46334;SDS011;32051;48.882;9.210;2024-03-08T04:28:07;19.52;;;13.60;;
46334;SDS011;32051;48.882;9.210;2024-03-08T04:30:36;18.45;;;12.90;;
46334;SDS011;32051;48.882;9.210;2024-03-08T04:33:02;21.55;;;13.32;;
46334;SDS011;32051;48.882;9.210;2024-03-08T04:35:29;22.50;;;13.95;;
46334;SDS011;32051;48.882;9.210;2024-03-08T04:37:55;23.50;;;15.10;;
46334;SDS011;32051;48.882;9.210;2024-03-08T04:40:22;19.75;;;13.27;;
46334;SDS011;32051;48.882;9.210;2024-03-08T04:42:49;22.67;;;13.48;;
46334;SDS011;32051;48.882;9.210;2024-03-08T04:45:16;24.55;;;14.40;;
46334;SDS011;32051;48.882;9.210;2024-03-08T04:47:42;22.00;;;14.45;;
46334;SDS011;32051;48.882;9.210;2024-03-08T04:50:08;20.02;;;13.90;;
46334;SDS011;32051;48.882;9.210;2024-03-08T04:52:34;16.90;;;12.75;;
46334;SDS011;32051;48.882;9.210;2024-03-08T04:55:01;21.20;;;13.18;;
46334;SDS011;32051;48.882;9.210;2024-03-08T04:57:29;25.33;;;13.52;;
46334;SDS011;32051;48.882;9.210;2024-03-08T04:59:55;24.67;;;14.27;;
46334;SDS011;32051;48.882;9.210;2024-03-08T05:02:23;19.83;;;13.23;;
46334;SDS011;32051;48.882;9.210;2024-03-08T05:04:49;20.13;;;12.93;;
46334;SDS011;32051;48.882;9.210;2024-03-08T05:07:15;18.00;;;13.00;;
46334;SDS011;32051;48.882;9.210;2024-03-08T05:09:41;22.30;;;13.80;;
46334;SDS011;32051;48.882;9.210;2024-03-08T05:12:07;19.42;;;13.80;;
46334;SDS011;32051;48.882;9.210;2024-03-08T05:14:33;30.38;;;15.13;;
46334;SDS011;32051;48.882;9.210;2024-03-08T05:17:00;21.70;;;13.10;;
46334;SDS011;32051;48.882;9.210;2024-03-08T05:19:26;25.35;;;13.48;;
46334;SDS011;32051;48.882;9.210;2024-03-08T05:21:52;25.58;;;13.25;;
46334;SDS011;32051;48.882;9.210;2024-03-08T05:24:18;24.88;;;14.80;;
46334;SDS011;32051;48.882;9.210;2024-03-08T05:26:44;17.95;;;12.60;;
46334;SDS011;32051;48.882;9.210;2024-03-08T05:29:11;22.30;;;13.23;;
46334;SDS011;32051;48.882;9.210;2024-03-08T05:31:48;21.77;;;14.38;;
46334;SDS011;32051;48.882;9.210;2024-03-08T05:34:14;23.23;;;14.90;;
46334;SDS011;32051;48.882;9.210;2024-03-08T05:36:41;18.50;;;13.40;;
46334;SDS011;32051;48.882;9.210;2024-03-08T05:39:14;22.30;;;14.00;;
46334;SDS011;32051;48.882;9.210;2024-03-08T05:41:40;25.27;;;15.05;;
46334;SDS011;32051;48.882;9.210;2024-03-08T05:44:07;23.20;;;13.85;;
46334;SDS011;32051;48.882;9.210;2024-03-08T05:46:33;18.92;;;13.15;;
46334;SDS011;32051;48.882;9.210;2024-03-08T05:49:01;18.52;;;13.23;;
46334;SDS011;32051;48.882;9.210;2024-03-08T05:51:33;20.83;;;14.63;;
46334;SDS011;32051;48.882;9.210;2024-03-08T05:54:00;22.65;;;14.50;;
46334;SDS011;32051;48.882;9.210;2024-03-08T05:56:29;20.10;;;14.48;;
46334;SDS011;32051;48.882;9.210;2024-03-08T05:58:55;27.58;;;15.32;;
46334;SDS011;32051;48.882;9.210;2024-03-08T06:01:21;19.20;;;13.60;;
46334;SDS011;32051;48.882;9.210;2024-03-08T06:03:47;23.63;;;15.07;;
46334;SDS011;32051;48.882;9.210;2024-03-08T06:06:14;33.13;;;16.33;;
46334;SDS011;32051;48.882;9.210;2024-03-08T06:08:40;27.13;;;15.82;;
46334;SDS011;32051;48.882;9.210;2024-03-08T06:11:08;22.85;;;14.30;;
46334;SDS011;32051;48.882;9.210;2024-03-08T06:13:35;21.60;;;13.90;;
46334;SDS011;32051;48.882;9.210;2024-03-08T06:16:01;28.50;;;14.20;;
46334;SDS011;32051;48.882;9.210;2024-03-08T06:18:32;29.23;;;14.15;;
46334;SDS011;32051;48.882;9.210;2024-03-08T06:20:59;23.42;;;13.95;;
46334;SDS011;32051;48.882;9.210;2024-03-08T06:23:25;23.30;;;14.65;;
46334;SDS011;32051;48.882;9.210;2024-03-08T06:25:52;20.30;;;13.10;;
46334;SDS011;32051;48.882;9.210;2024-03-08T06:28:19;22.75;;;15.13;;
46334;SDS011;32051;48.882;9.210;2024-03-08T06:30:45;22.98;;;14.48;;
46334;SDS011;32051;48.882;9.210;2024-03-08T06:33:11;23.27;;;14.98;;
46334;SDS011;32051;48.882;9.210;2024-03-08T06:35:37;22.52;;;14.55;;
46334;SDS011;32051;48.882;9.210;2024-03-08T06:38:04;26.50;;;16.45;;
46334;SDS011;32051;48.882;9.210;2024-03-08T06:40:30;23.77;;;15.20;;
46334;SDS011;32051;48.882;9.210;2024-03-08T06:42:56;24.60;;;15.70;;
46334;SDS011;32051;48.882;9.210;2024-03-08T06:45:22;25.77;;;14.90;;
46334;SDS011;32051;48.882;9.210;2024-03-08T06:47:49;22.05;;;14.60;;
46334;SDS011;32051;48.882;9.210;2024-03-08T06:50:15;21.63;;;14.23;;
46334;SDS011;32051;48.882;9.210;2024-03-08T06:52:41;20.88;;;13.88;;
46334;SDS011;32051;48.882;9.210;2024-03-08T06:55:08;24.35;;;14.02;;
46334;SDS011;32051;48.882;9.210;2024-03-08T06:57:39;21.70;;;14.18;;
46334;SDS011;32051;48.882;9.210;2024-03-08T07:00:07;19.75;;;14.70;;
46334;SDS011;32051;48.882;9.210;2024-03-08T07:02:43;20.02;;;14.43;;
46334;SDS011;32051;48.882;9.210;2024-03-08T07:05:18;18.65;;;14.90;;
46334;SDS011;32051;48.882;9.210;2024-03-08T07:07:45;23.40;;;14.88;;
46334;SDS011;32051;48.882;9.210;2024-03-08T07:10:13;25.15;;;15.27;;
46334;SDS011;32051;48.882;9.210;2024-03-08T07:12:40;22.63;;;13.93;;
46334;SDS011;32051;48.882;9.210;2024-03-08T07:15:07;23.27;;;14.60;;
46334;SDS011;32051;48.882;9.210;2024-03-08T07:17:39;20.25;;;13.85;;
46334;SDS011;32051;48.882;9.210;2024-03-08T07:20:05;22.02;;;14.07;;
46334;SDS011;32051;48.882;9.210;2024-03-08T07:22:36;23.65;;;14.80;;
46334;SDS011;32051;48.882;9.210;2024-03-08T07:25:04;24.85;;;16.08;;
46334;SDS011;32051;48.882;9.210;2024-03-08T07:30:12;29.35;;;14.10;;
46334;SDS011;32051;48.882;9.210;2024-03-08T07:32:48;22.83;;;15.05;;
46334;SDS011;32051;48.882;9.210;2024-03-08T07:35:14;31.95;;;15.15;;
46334;SDS011;32051;48.882;9.210;2024-03-08T07:37:42;22.40;;;13.63;;
46334;SDS011;32051;48.882;9.210;2024-03-08T07:40:08;21.58;;;14.50;;
46334;SDS011;32051;48.882;9.210;2024-03-08T07:42:34;19.08;;;13.27;;
46334;SDS011;32051;48.882;9.210;2024-03-08T07:45:01;25.25;;;14.52;;
46334;SDS011;32051;48.882;9.210;2024-03-08T07:47:27;20.20;;;14.07;;
46334;SDS011;32051;48.882;9.210;2024-03-08T07:49:57;22.15;;;15.77;;
46334;SDS011;32051;48.882;9.210;2024-03-08T07:52:25;16.90;;;12.98;;
46334;SDS011;32051;48.882;9.210;2024-03-08T07:54:51;20.55;;;14.25;;
46334;SDS011;32051;48.882;9.210;2024-03-08T07:57:17;24.08;;;14.43;;
46334;SDS011;32051;48.882;9.210;2024-03-08T07:59:43;17.92;;;13.60;;
46334;SDS011;32051;48.882;9.210;2024-03-08T08:02:08;22.25;;;14.50;;
46334;SDS011;32051;48.882;9.210;2024-03-08T08:04:34;18.80;;;13.35;;
46334;SDS011;32051;48.882;9.210;2024-03-08T08:07:00;23.45;;;14.57;;
46334;SDS011;32051;48.882;9.210;2024-03-08T08:09:26;20.13;;;13.13;;
46334;SDS011;32051;48.882;9.210;2024-03-08T08:11:59;20.40;;;13.98;;
46334;SDS011;32051;48.882;9.210;2024-03-08T08:14:28;21.23;;;14.55;;
46334;SDS011;32051;48.882;9.210;2024-03-08T08:16:54;21.48;;;14.88;;
46334;SDS011;32051;48.882;9.210;2024-03-08T08:19:22;21.88;;;12.63;;
46334;SDS011;32051;48.882;9.210;2024-03-08T08:21:48;20.10;;;13.80;;
46334;SDS011;32051;48.882;9.210;2024-03-08T08:24:14;19.08;;;13.27;;
46334;SDS011;32051;48.882;9.210;2024-03-08T08:26:40;22.05;;;14.43;;
46334;SDS011;32051;48.882;9.210;2024-03-08T08:29:06;21.38;;;14.55;;
46334;SDS011;32051;48.882;9.210;2024-03-08T08:31:32;19.92;;;13.35;;
46334;SDS011;32051;48.882;9.210;2024-03-08T08:33:58;20.83;;;14.55;;
46334;SDS011;32051;48.882;9.210;2024-03-08T08:36:25;25.70;;;13.20;;
46334;SDS011;32051;48.882;9.210;2024-03-08T08:38:51;26.25;;;14.88;;
46334;SDS011;32051;48.882;9.210;2024-03-08T08:41:19;22.70;;;15.30;;
46334;SDS011;32051;48.882;9.210;2024-03-08T08:43:46;23.60;;;13.52;;
46334;SDS011;32051;48.882;9.210;2024-03-08T08:46:16;19.10;;;13.13;;
46334;SDS011;32051;48.882;9.210;2024-03-08T08:48:42;18.98;;;13.75;;
46334;SDS011;32051;48.882;9.210;2024-03-08T08:51:10;17.50;;;13.45;;
46334;SDS011;32051;48.882;9.210;2024-03-08T08:53:40;19.73;;;13.38;;
46334;SDS011;32051;48.882;9.210;2024-03-08T08:56:08;16.70;;;11.88;;
46334;SDS011;32051;48.882;9.210;2024-03-08T08:58:38;20.80;;;13.23;;
46334;SDS011;32051;48.882;9.210;2024-03-08T09:01:05;25.48;;;13.88;;
46334;SDS011;32051;48.882;9.210;2024-03-08T09:03:30;21.05;;;13.98;;
46334;SDS011;32051;48.882;9.210;2024-03-08T09:05:56;20.63;;;13.68;;
46334;SDS011;32051;48.882;9.210;2024-03-08T09:08:21;22.52;;;13.55;;
46334;SDS011;32051;48.882;9.210;2024-03-08T09:10:48;17.77;;;13.35;;
46334;SDS011;32051;48.882;9.210;2024-03-08T09:13:13;14.88;;;11.32;;
46334;SDS011;32051;48.882;9.210;2024-03-08T09:15:39;21.73;;;13.38;;
46334;SDS011;32051;48.882;9.210;2024-03-08T09:18:06;16.90;;;12.65;;
46334;SDS011;32051;48.882;9.210;2024-03-08T09:20:33;20.75;;;12.50;;
46334;SDS011;32051;48.882;9.210;2024-03-08T09:22:59;19.25;;;12.80;;
46334;SDS011;32051;48.882;9.210;2024-03-08T09:25:25;22.27;;;14.55;;
46334;SDS011;32051;48.882;9.210;2024-03-08T09:27:51;22.13;;;13.77;;
46334;SDS011;32051;48.882;9.210;2024-03-08T09:30:16;21.33;;;13.43;;
46334;SDS011;32051;48.882;9.210;2024-03-08T09:32:43;20.48;;;13.65;;
46334;SDS011;32051;48.882;9.210;2024-03-08T09:35:09;19.92;;;13.95;;
46334;SDS011;32051;48.882;9.210;2024-03-08T09:37:36;19.10;;;12.80;;
46334;SDS011;32051;48.882;9.210;2024-03-08T09:40:02;21.55;;;13.65;;
46334;SDS011;32051;48.882;9.210;2024-03-08T09:42:34;21.27;;;13.65;;
46334;SDS011;32051;48.882;9.210;2024-03-08T09:45:08;18.88;;;13.35;;
46334;SDS011;32051;48.882;9.210;2024-03-08T09:47:40;20.70;;;13.18;;
46334;SDS011;32051;48.882;9.210;2024-03-08T09:50:08;19.33;;;13.65;;
46334;SDS011;32051;48.882;9.210;2024-03-08T09:52:46;17.65;;;13.73;;
46334;SDS011;32051;48.882;9.210;2024-03-08T09:55:13;21.83;;;13.30;;
46334;SDS011;32051;48.882;9.210;2024-03-08T09:57:41;15.75;;;11.90;;
46334;SDS011;32051;48.882;9.210;2024-03-08T10:00:28;25.27;;;13.75;;
46334;SDS011;32051;48.882;9.210;2024-03-08T10:03:00;18.00;;;12.82;;
46334;SDS011;32051;48.882;9.210;2024-03-08T10:05:26;15.25;;;12.15;;
46334;SDS011;32051;48.882;9.210;2024-03-08T10:07:52;15.90;;;12.30;;
46334;SDS011;32051;48.882;9.210;2024-03-08T10:10:18;18.23;;;12.98;;
46334;SDS011;32051;48.882;9.210;2024-03-08T10:12:44;20.48;;;12.90;;
46334;SDS011;32051;48.882;9.210;2024-03-08T10:15:11;17.00;;;13.43;;
46334;SDS011;32051;48.882;9.210;2024-03-08T10:17:37;17.02;;;12.82;;
46334;SDS011;32051;48.882;9.210;2024-03-08T10:20:13;17.67;;;12.98;;
46334;SDS011;32051;48.882;9.210;2024-03-08T10:22:40;21.55;;;13.07;;
46334;SDS011;32051;48.882;9.210;2024-03-08T10:25:09;18.75;;;13.20;;
46334;SDS011;32051;48.882;9.210;2024-03-08T10:27:36;16.00;;;12.60;;
46334;SDS011;32051;48.882;9.210;2024-03-08T10:30:02;24.15;;;13.80;;
46334;SDS011;32051;48.882;9.210;2024-03-08T10:32:30;30.25;;;12.73;;
46334;SDS011;32051;48.882;9.210;2024-03-08T10:34:56;19.25;;;14.77;;
46334;SDS011;32051;48.882;9.210;2024-03-08T10:37:22;19.35;;;13.85;;
46334;SDS011;32051;48.882;9.210;2024-03-08T10:39:55;18.20;;;12.73;;
46334;SDS011;32051;48.882;9.210;2024-03-08T10:42:35;25.75;;;13.70;;
46334;SDS011;32051;48.882;9.210;2024-03-08T10:45:10;19.95;;;12.85;;
46334;SDS011;32051;48.882;9.210;2024-03-08T10:47:40;17.17;;;12.25;;
46334;SDS011;32051;48.882;9.210;2024-03-08T10:52:39;19.30;;;13.35;;
46334;SDS011;32051;48.882;9.210;2024-03-08T10:55:05;22.08;;;13.93;;
46334;SDS011;32051;48.882;9.210;2024-03-08T10:57:38;17.13;;;12.57;;
46334;SDS011;32051;48.882;9.210;2024-03-08T11:00:06;21.13;;;13.57;;
46334;SDS011;32051;48.882;9.210;2024-03-08T11:02:35;17.45;;;12.48;;
46334;SDS011;32051;48.882;9.210;2024-03-08T11:05:03;21.25;;;12.55;;
46334;SDS011;32051;48.882;9.210;2024-03-08T11:07:33;23.55;;;14.25;;
46334;SDS011;32051;48.882;9.210;2024-03-08T11:10:03;15.80;;;12.35;;
46334;SDS011;32051;48.882;9.210;2024-03-08T11:12:35;23.25;;;14.65;;
46334;SDS011;32051;48.882;9.210;2024-03-08T11:15:02;18.47;;;12.90;;
46334;SDS011;32051;48.882;9.210;2024-03-08T11:20:03;18.45;;;13.85;;
46334;SDS011;32051;48.882;9.210;2024-03-08T11:22:40;18.55;;;12.82;;
46334;SDS011;32051;48.882;9.210;2024-03-08T11:25:08;23.13;;;14.27;;
46334;SDS011;32051;48.882;9.210;2024-03-08T11:27:36;19.65;;;13.27;;
46334;SDS011;32051;48.882;9.210;2024-03-08T11:30:06;20.17;;;12.43;;
46334;SDS011;32051;48.882;9.210;2024-03-08T11:32:36;21.20;;;11.88;;
46334;SDS011;32051;48.882;9.210;2024-03-08T11:35:07;15.43;;;11.93;;
46334;SDS011;32051;48.882;9.210;2024-03-08T11:37:34;20.73;;;13.35;;
46334;SDS011;32051;48.882;9.210;2024-03-08T11:40:01;18.63;;;13.63;;
46334;SDS011;32051;48.882;9.210;2024-03-08T11:42:30;17.33;;;12.13;;
46334;SDS011;32051;48.882;9.210;2024-03-08T11:44:56;17.63;;;12.77;;
46334;SDS011;32051;48.882;9.210;2024-03-08T11:47:23;22.60;;;14.07;;
46334;SDS011;32051;48.882;9.210;2024-03-08T11:49:50;20.80;;;14.40;;
46334;SDS011;32051;48.882;9.210;2024-03-08T11:52:18;22.52;;;13.60;;
46334;SDS011;32051;48.882;9.210;2024-03-08T11:54:53;18.23;;;13.90;;
46334;SDS011;32051;48.882;9.210;2024-03-08T11:57:22;16.33;;;12.60;;
46334;SDS011;32051;48.882;9.210;2024-03-08T11:59:52;18.20;;;13.18;;
46334;SDS011;32051;48.882;9.210;2024-03-08T12:02:18;18.13;;;13.02;;
46334;SDS011;32051;48.882;9.210;2024-03-08T12:04:47;18.38;;;13.23;;
46334;SDS011;32051;48.882;9.210;2024-03-08T12:07:13;23.98;;;12.93;;
46334;SDS011;32051;48.882;9.210;2024-03-08T12:09:43;18.38;;;12.65;;
46334;SDS011;32051;48.882;9.210;2024-03-08T12:12:12;17.50;;;13.15;;
46334;SDS011;32051;48.882;9.210;2024-03-08T12:14:38;18.10;;;13.10;;
46334;SDS011;32051;48.882;9.210;2024-03-08T12:17:04;18.13;;;13.07;;
46334;SDS011;32051;48.882;9.210;2024-03-08T12:19:31;16.42;;;12.40;;
46334;SDS011;32051;48.882;9.210;2024-03-08T12:21:57;15.93;;;12.60;;
46334;SDS011;32051;48.882;9.210;2024-03-08T12:24:33;20.17;;;13.23;;
46334;SDS011;32051;48.882;9.210;2024-03-08T12:27:01;23.35;;;14.02;;
46334;SDS011;32051;48.882;9.210;2024-03-08T12:29:30;16.95;;;13.57;;
46334;SDS011;32051;48.882;9.210;2024-03-08T12:31:59;20.02;;;13.00;;
46334;SDS011;32051;48.882;9.210;2024-03-08T12:34:26;14.23;;;12.35;;
46334;SDS011;32051;48.882;9.210;2024-03-08T12:36:53;24.08;;;13.70;;
46334;SDS011;32051;48.882;9.210;2024-03-08T12:39:20;20.05;;;11.65;;
46334;SDS011;32051;48.882;9.210;2024-03-08T12:41:53;15.20;;;11.70;;
46334;SDS011;32051;48.882;9.210;2024-03-08T12:44:19;18.67;;;11.90;;
46334;SDS011;32051;48.882;9.210;2024-03-08T12:46:50;15.43;;;12.15;;
46334;SDS011;32051;48.882;9.210;2024-03-08T12:49:16;19.92;;;13.88;;
46334;SDS011;32051;48.882;9.210;2024-03-08T12:51:43;15.23;;;11.38;;
46334;SDS011;32051;48.882;9.210;2024-03-08T12:54:09;22.02;;;13.18;;
46334;SDS011;32051;48.882;9.210;2024-03-08T12:56:35;18.42;;;12.82;;
46334;SDS011;32051;48.882;9.210;2024-03-08T12:59:06;17.48;;;11.90;;
46334;SDS011;32051;48.882;9.210;2024-03-08T13:01:33;14.35;;;12.27;;
46334;SDS011;32051;48.882;9.210;2024-03-08T13:04:02;16.33;;;12.57;;
46334;SDS011;32051;48.882;9.210;2024-03-08T13:06:28;14.13;;;12.02;;
46334;SDS011;32051;48.882;9.210;2024-03-08T13:08:56;13.43;;;11.80;;
46334;SDS011;32051;48.882;9.210;2024-03-08T13:11:23;13.90;;;12.40;;
46334;SDS011;32051;48.882;9.210;2024-03-08T13:13:49;13.43;;;11.98;;
46334;SDS011;32051;48.882;9.210;2024-03-08T13:16:15;15.32;;;12.20;;
46334;SDS011;32051;48.882;9.210;2024-03-08T13:18:42;14.10;;;12.30;;
46334;SDS011;32051;48.882;9.210;2024-03-08T13:21:08;15.07;;;11.57;;
46334;SDS011;32051;48.882;9.210;2024-03-08T13:23:36;17.45;;;12.52;;
46334;SDS011;32051;48.882;9.210;2024-03-08T13:26:06;21.05;;;13.13;;
46334;SDS011;32051;48.882;9.210;2024-03-08T13:28:32;19.35;;;11.93;;
46334;SDS011;32051;48.882;9.210;2024-03-08T13:31:03;15.88;;;11.73;;
46334;SDS011;32051;48.882;9.210;2024-03-08T13:33:32;12.25;;;11.05;;
46334;SDS011;32051;48.882;9.210;2024-03-08T13:36:01;15.48;;;10.77;;
46334;SDS011;32051;48.882;9.210;2024-03-08T13:38:28;15.70;;;12.32;;
46334;SDS011;32051;48.882;9.210;2024-03-08T13:40:54;23.70;;;12.70;;
46334;SDS011;32051;48.882;9.210;2024-03-08T13:43:20;17.23;;;14.13;;
46334;SDS011;32051;48.882;9.210;2024-03-08T13:45:45;16.52;;;11.60;;
46334;SDS011;32051;48.882;9.210;2024-03-08T13:48:11;13.25;;;11.00;;
46334;SDS011;32051;48.882;9.210;2024-03-08T13:50:38;17.33;;;12.00;;
46334;SDS011;32051;48.882;9.210;2024-03-08T13:53:04;12.30;;;11.05;;
46334;SDS011;32051;48.882;9.210;2024-03-08T13:55:30;21.08;;;12.32;;
46334;SDS011;32051;48.882;9.210;2024-03-08T13:57:56;16.67;;;12.02;;
46334;SDS011;32051;48.882;9.210;2024-03-08T14:00:25;18.77;;;12.93;;
46334;SDS011;32051;48.882;9.210;2024-03-08T14:02:58;18.45;;;12.88;;
46334;SDS011;32051;48.882;9.210;2024-03-08T14:05:24;15.15;;;11.40;;
46334;SDS011;32051;48.882;9.210;2024-03-08T14:07:49;14.98;;;11.32;;
46334;SDS011;32051;48.882;9.210;2024-03-08T14:10:19;21.75;;;11.85;;
46334;SDS011;32051;48.882;9.210;2024-03-08T14:12:47;24.20;;;14.70;;
46334;SDS011;32051;48.882;9.210;2024-03-08T14:15:15;21.77;;;14.23;;
46334;SDS011;32051;48.882;9.210;2024-03-08T14:17:41;19.55;;;13.27;;
46334;SDS011;32051;48.882;9.210;2024-03-08T14:20:07;18.30;;;12.15;;
46334;SDS011;32051;48.882;9.210;2024-03-08T14:22:34;19.83;;;12.60;;
46334;SDS011;32051;48.882;9.210;2024-03-08T14:25:00;35.10;;;12.90;;
46334;SDS011;32051;48.882;9.210;2024-03-08T14:27:26;17.75;;;12.40;;
46334;SDS011;32051;48.882;9.210;2024-03-08T14:29:52;18.77;;;13.38;;
46334;SDS011;32051;48.882;9.210;2024-03-08T14:32:19;18.90;;;13.02;;